Time;durP1;ratioP1;P1;durP2;ratioP2;P2;SDS_P1;SDS_P2;PMS_P1;PMS_P2;Temp;Humidity;BMP_temperature;BMP_pressure;BME280_temperature;BME280_humidity;BME280_pressure;Samples;Min_cycle;Max_cycle;Signal;HPM_P1;HPM_P2
2021/10/18 00:01:15;;;;;;;9.23;8.20;;;8.40;99.90;;;;;;5029884;28;20174;-73
2021/10/18 00:03:41;;;;;;;8.37;7.57;;;8.30;99.90;;;;;;5020639;28;20188;-73
2021/10/18 00:06:07;;;;;;;9.77;6.80;;;8.30;99.90;;;;;;5033661;28;20205;-72
2021/10/18 00:08:32;;;;;;;7.50;6.70;;;8.30;99.90;;;;;;5033568;28;20198;-73
2021/10/18 00:10:58;;;;;;;7.80;6.50;;;8.30;99.90;;;;;;5033152;28;20180;-73
2021/10/18 00:13:24;;;;;;;8.40;6.93;;;8.30;99.90;;;;;;5033527;28;20169;-73
2021/10/18 00:15:49;;;;;;;7.53;6.80;;;8.40;99.90;;;;;;5033266;28;20158;-73
2021/10/18 00:18:15;;;;;;;8.43;7.63;;;8.40;99.90;;;;;;5030389;28;20258;-73
2021/10/18 00:20:41;;;;;;;9.13;7.30;;;8.40;99.90;;;;;;5014571;28;20224;-73
2021/10/18 00:23:09;;;;;;;8.47;7.77;;;8.30;99.90;;;;;;5033349;28;20249;-73
2021/10/18 00:25:34;;;;;;;8.70;7.80;;;8.40;99.90;;;;;;5033115;28;20788;-72
2021/10/18 00:28:00;;;;;;;9.60;7.40;;;8.30;99.90;;;;;;5033357;28;20411;-74
2021/10/18 00:30:26;;;;;;;9.17;8.27;;;8.30;99.90;;;;;;5032919;28;20423;-73
2021/10/18 00:32:51;;;;;;;8.70;7.30;;;8.30;99.90;;;;;;5033460;28;20256;-73
2021/10/18 00:35:17;;;;;;;7.63;6.70;;;8.30;99.90;;;;;;5032257;28;20714;-73
2021/10/18 00:37:42;;;;;;;7.93;7.23;;;8.30;99.90;;;;;;5033115;28;20165;-73
2021/10/18 00:40:09;;;;;;;8.63;7.73;;;8.20;99.90;;;;;;5032140;28;20569;-73
2021/10/18 00:42:34;;;;;;;8.03;7.23;;;8.20;99.90;;;;;;5032979;28;20173;-73
2021/10/18 00:45:00;;;;;;;8.30;7.47;;;8.20;99.90;;;;;;5033108;28;20400;-74
2021/10/18 00:47:25;;;;;;;8.00;7.20;;;8.20;99.90;;;;;;5033034;28;20166;-71
2021/10/18 00:49:51;;;;;;;9.93;8.23;;;8.20;99.90;;;;;;5032584;28;20161;-73
2021/10/18 00:52:19;;;;;;;8.73;7.70;;;8.20;99.90;;;;;;5029343;28;20185;-73
2021/10/18 00:54:47;;;;;;;7.97;7.13;;;8.10;99.90;;;;;;5013090;28;20567;-73
2021/10/18 00:57:14;;;;;;;8.10;7.30;;;8.10;99.90;;;;;;5012917;28;20425;-73
2021/10/18 00:59:41;;;;;;;8.70;7.13;;;8.10;99.90;;;;;;5012686;28;20448;-72
2021/10/18 01:02:06;;;;;;;8.00;7.20;;;8.10;99.90;;;;;;5032448;28;20428;-73
2021/10/18 01:04:32;;;;;;;9.67;7.90;;;8.10;99.90;;;;;;5032811;28;20408;-73
2021/10/18 01:06:58;;;;;;;8.37;7.67;;;8.00;99.90;;;;;;5032532;28;20637;-73
2021/10/18 01:09:24;;;;;;;8.50;7.13;;;8.00;99.90;;;;;;5031630;28;20617;-73
2021/10/18 01:11:49;;;;;;;8.50;7.30;;;8.00;99.90;;;;;;5032218;28;20235;-73
2021/10/18 01:14:15;;;;;;;7.87;7.17;;;8.00;99.90;;;;;;5032341;28;20168;-73
2021/10/18 01:16:41;;;;;;;8.13;7.27;;;8.00;99.90;;;;;;5032761;28;20225;-73
2021/10/18 01:19:12;;;;;;;10.03;7.70;;;7.90;99.90;;;;;;5032417;28;20507;-73
2021/10/18 01:21:38;;;;;;;7.97;6.83;;;7.90;99.90;;;;;;5031721;28;20179;-73
2021/10/18 01:24:04;;;;;;;8.80;7.57;;;7.90;99.90;;;;;;5032633;28;20462;-73
2021/10/18 01:26:30;;;;;;;8.67;7.10;;;7.90;99.90;;;;;;5027575;28;20421;-73
2021/10/18 01:28:55;;;;;;;8.00;7.17;;;7.90;99.90;;;;;;5012335;28;20622;-72
2021/10/18 01:31:21;;;;;;;8.80;7.90;;;7.80;99.90;;;;;;5024355;28;20204;-73
2021/10/18 01:33:47;;;;;;;11.60;8.90;;;7.80;99.90;;;;;;5032342;28;20157;-72
2021/10/18 01:36:13;;;;;;;7.50;6.67;;;7.70;99.90;;;;;;5032280;28;20173;-73
2021/10/18 01:38:38;;;;;;;8.47;7.67;;;7.70;99.90;;;;;;5032345;28;20422;-73
2021/10/18 01:41:04;;;;;;;7.63;6.93;;;7.80;99.90;;;;;;5032147;28;20169;-74
2021/10/18 01:43:29;;;;;;;10.90;8.60;;;7.80;99.90;;;;;;5027432;28;20188;-73
2021/10/18 01:45:55;;;;;;;9.57;6.90;;;7.80;99.90;;;;;;5012601;28;20158;-73
2021/10/18 01:48:21;;;;;;;9.10;7.47;;;7.80;99.90;;;;;;5012766;28;20162;-73
2021/10/18 01:50:46;;;;;;;11.10;7.67;;;7.80;99.90;;;;;;5018849;28;20649;-73
2021/10/18 01:53:12;;;;;;;8.23;6.80;;;7.70;99.90;;;;;;5032151;28;20388;-73
2021/10/18 01:55:38;;;;;;;8.20;6.83;;;7.70;99.90;;;;;;5032119;28;20162;-71
2021/10/18 01:58:03;;;;;;;7.30;6.60;;;7.70;99.90;;;;;;5032107;28;20169;-71
2021/10/18 02:00:29;;;;;;;7.70;7.00;;;7.60;99.90;;;;;;5030792;28;20573;-73
2021/10/18 02:02:54;;;;;;;7.70;6.90;;;7.60;99.90;;;;;;5032262;28;20219;-73
2021/10/18 02:05:20;;;;;;;7.50;6.80;;;7.60;99.90;;;;;;5031532;28;20169;-73
2021/10/18 02:07:46;;;;;;;10.27;7.00;;;7.60;99.90;;;;;;5032128;28;20158;-73
2021/10/18 02:10:12;;;;;;;8.90;7.10;;;7.60;99.90;;;;;;5032222;28;20661;-74
2021/10/18 02:12:39;;;;;;;10.33;8.00;;;7.60;99.90;;;;;;5031982;28;20165;-73
2021/10/18 02:15:06;;;;;;;8.67;6.90;;;7.60;99.90;;;;;;5031826;28;20758;-74
2021/10/18 02:17:31;;;;;;;9.03;6.80;;;7.60;99.90;;;;;;5026239;28;20416;-74
2021/10/18 02:19:57;;;;;;;8.43;7.60;;;7.60;99.90;;;;;;5022830;28;20469;-73
2021/10/18 02:22:23;;;;;;;9.30;7.73;;;7.60;99.90;;;;;;5012265;28;20241;-73
2021/10/18 02:24:48;;;;;;;8.53;7.57;;;7.50;99.90;;;;;;5012243;28;20160;-73
2021/10/18 02:27:14;;;;;;;7.50;6.77;;;7.50;99.90;;;;;;5014788;28;20242;-76
2021/10/18 02:29:40;;;;;;;9.27;8.13;;;7.50;99.90;;;;;;5023681;28;20251;-77
2021/10/18 02:32:06;;;;;;;11.40;7.57;;;7.50;99.90;;;;;;5035275;28;20243;-76
2021/10/18 02:34:32;;;;;;;9.30;8.03;;;7.50;99.90;;;;;;5033410;28;20814;-76
2021/10/18 02:36:57;;;;;;;8.83;7.47;;;7.40;99.90;;;;;;5035396;28;20392;-76
2021/10/18 02:39:23;;;;;;;7.80;7.03;;;7.40;99.90;;;;;;5035127;28;20201;-76
2021/10/18 02:41:48;;;;;;;11.80;9.33;;;7.40;99.90;;;;;;5034914;28;20166;-76
2021/10/18 02:44:14;;;;;;;9.80;8.73;;;7.40;99.90;;;;;;5035152;28;20172;-77
2021/10/18 02:46:39;;;;;;;9.73;8.00;;;7.40;99.90;;;;;;5035018;28;20523;-76
2021/10/18 02:49:05;;;;;;;9.20;7.67;;;7.40;99.90;;;;;;5035113;28;20185;-76
2021/10/18 02:51:30;;;;;;;9.43;7.70;;;7.40;99.90;;;;;;5029576;28;20178;-76
2021/10/18 02:53:56;;;;;;;7.57;6.87;;;7.40;99.90;;;;;;5015116;28;20170;-77
2021/10/18 02:56:21;;;;;;;10.37;7.50;;;7.40;99.90;;;;;;5015300;28;20253;-77
2021/10/18 02:58:47;;;;;;;9.20;8.30;;;7.40;99.90;;;;;;5014865;28;20565;-77
2021/10/18 03:01:12;;;;;;;8.97;8.13;;;7.40;99.90;;;;;;5025151;28;20177;-76
2021/10/18 03:03:38;;;;;;;8.93;7.47;;;7.40;99.90;;;;;;5034801;28;20193;-76
2021/10/18 03:06:04;;;;;;;8.03;7.23;;;7.30;99.90;;;;;;5034729;28;20177;-77
2021/10/18 03:08:29;;;;;;;7.50;6.77;;;7.30;99.90;;;;;;5029397;28;20181;-77
2021/10/18 03:10:55;;;;;;;7.63;6.63;;;7.30;99.90;;;;;;5021743;28;20223;-77
2021/10/18 03:13:20;;;;;;;9.07;7.17;;;7.30;99.90;;;;;;5034670;28;20496;-76
2021/10/18 03:15:46;;;;;;;7.60;6.90;;;7.20;99.90;;;;;;5034706;28;20617;-76
2021/10/18 03:18:12;;;;;;;8.37;7.60;;;7.20;99.90;;;;;;5034348;28;20314;-76
2021/10/18 03:20:37;;;;;;;7.83;7.03;;;7.20;99.90;;;;;;5034112;28;20200;-76
2021/10/18 03:23:03;;;;;;;8.43;7.50;;;7.20;99.90;;;;;;5034525;28;20248;-77
2021/10/18 03:25:34;;;;;;;8.47;7.77;;;7.30;99.90;;;;;;5029701;28;20189;-76
2021/10/18 03:28:00;;;;;;;8.67;7.87;;;7.30;99.90;;;;;;5014413;28;20320;-76
2021/10/18 03:30:25;;;;;;;9.77;7.63;;;7.30;99.90;;;;;;5017322;28;20808;-76
2021/10/18 03:32:51;;;;;;;9.70;7.80;;;7.30;99.90;;;;;;5034374;28;20493;-76
2021/10/18 03:35:17;;;;;;;9.70;8.23;;;7.30;99.90;;;;;;5034234;28;20192;-76
2021/10/18 03:37:42;;;;;;;8.60;7.37;;;7.30;99.90;;;;;;5034276;28;20322;-76
2021/10/18 03:40:11;;;;;;;7.57;6.93;;;7.30;99.90;;;;;;5033959;28;20205;-76
2021/10/18 03:42:38;;;;;;;9.60;7.83;;;7.20;99.90;;;;;;5031765;28;20210;-76
2021/10/18 03:45:05;;;;;;;7.27;6.67;;;7.20;99.90;;;;;;5034018;28;20415;-76
2021/10/18 03:47:31;;;;;;;11.27;8.13;;;7.30;99.90;;;;;;5034043;28;20392;-76
2021/10/18 03:49:56;;;;;;;10.80;8.67;;;7.30;99.90;;;;;;5034001;28;20393;-76
2021/10/18 03:52:22;;;;;;;8.67;7.00;;;7.20;99.90;;;;;;5033886;28;20239;-76
2021/10/18 03:54:48;;;;;;;9.67;8.70;;;7.20;99.90;;;;;;5033688;28;20566;-76
2021/10/18 03:57:13;;;;;;;9.63;8.73;;;7.20;99.90;;;;;;5033810;28;20775;-76
2021/10/18 03:59:39;;;;;;;9.27;8.37;;;7.10;99.90;;;;;;5027390;28;20205;-76
2021/10/18 04:02:06;;;;;;;8.07;7.37;;;7.20;99.90;;;;;;5026456;28;20180;-76
2021/10/18 04:04:32;;;;;;;9.27;8.47;;;7.20;99.90;;;;;;5033599;28;20461;-76
2021/10/18 04:06:57;;;;;;;9.60;8.70;;;7.10;99.90;;;;;;5033459;28;20400;-76
2021/10/18 04:09:23;;;;;;;10.17;9.17;;;7.10;99.90;;;;;;5020353;28;20190;-76
2021/10/18 04:11:48;;;;;;;9.10;7.90;;;7.10;99.90;;;;;;5013891;28;20173;-75
2021/10/18 04:14:14;;;;;;;10.23;8.70;;;7.10;99.90;;;;;;5026683;28;20208;-74
2021/10/18 04:16:39;;;;;;;9.73;8.33;;;7.10;99.90;;;;;;5026872;28;20192;-74
2021/10/18 04:19:06;;;;;;;12.13;8.73;;;7.10;99.90;;;;;;5013408;28;20288;-73
2021/10/18 04:21:31;;;;;;;12.20;8.83;;;7.10;99.90;;;;;;5013599;28;20167;-73
2021/10/18 04:23:57;;;;;;;9.93;8.93;;;7.10;99.90;;;;;;5013479;28;20780;-76
2021/10/18 04:26:23;;;;;;;8.53;7.73;;;7.10;99.90;;;;;;5013198;28;20241;-76
2021/10/18 04:28:48;;;;;;;9.17;8.17;;;7.10;99.90;;;;;;5029283;28;20649;-76
2021/10/18 04:31:14;;;;;;;9.03;8.13;;;7.10;99.90;;;;;;5033118;28;20600;-76
2021/10/18 04:33:39;;;;;;;11.77;9.07;;;7.10;99.90;;;;;;5026772;28;20182;-76
2021/10/18 04:36:05;;;;;;;9.73;8.17;;;7.10;99.90;;;;;;5018556;28;20673;-76
2021/10/18 04:38:31;;;;;;;8.77;7.87;;;7.10;99.90;;;;;;5015742;28;20190;-76
2021/10/18 04:40:57;;;;;;;9.10;8.10;;;7.10;99.90;;;;;;5015815;28;20200;-76
2021/10/18 04:43:22;;;;;;;9.63;7.80;;;7.00;99.90;;;;;;5023397;28;20905;-76
2021/10/18 04:45:48;;;;;;;9.77;8.57;;;7.00;99.90;;;;;;5026894;28;20182;-77
2021/10/18 04:48:14;;;;;;;8.70;7.80;;;7.00;99.90;;;;;;5020412;28;20323;-76
2021/10/18 04:50:39;;;;;;;9.27;8.40;;;7.10;99.90;;;;;;5017051;28;20189;-76
2021/10/18 04:53:05;;;;;;;10.43;8.73;;;7.00;99.90;;;;;;5026960;28;20194;-77
2021/10/18 04:55:30;;;;;;;8.93;8.03;;;7.00;99.90;;;;;;5015241;28;20180;-76
2021/10/18 04:58:00;;;;;;;9.67;7.83;;;7.00;99.90;;;;;;5014996;28;20181;-77
2021/10/18 05:00:28;;;;;;;8.50;7.63;;;7.10;99.90;;;;;;5022675;28;20661;-76
2021/10/18 05:02:54;;;;;;;10.30;9.20;;;7.10;99.90;;;;;;5021708;28;20830;-76
2021/10/18 05:05:21;;;;;;;11.43;7.80;;;7.10;99.90;;;;;;5025161;28;20801;-77
2021/10/18 05:07:58;;;;;;;9.70;8.73;;;7.10;99.90;;;;;;5016998;28;20466;-76
2021/10/18 05:10:24;;;;;;;9.20;8.30;;;7.10;99.90;;;;;;5026623;28;20797;-76
2021/10/18 05:12:49;;;;;;;10.63;9.53;;;7.10;99.90;;;;;;5021893;28;20437;-76
2021/10/18 05:15:15;;;;;;;10.50;9.50;;;7.20;99.90;;;;;;5021176;28;20189;-76
2021/10/18 05:17:40;;;;;;;9.80;8.50;;;7.20;99.90;;;;;;5012074;28;20177;-76
2021/10/18 05:20:06;;;;;;;12.53;9.57;;;7.20;99.90;;;;;;5032920;28;20205;-76
2021/10/18 05:22:32;;;;;;;9.80;8.80;;;7.10;99.90;;;;;;5020080;28;20192;-76
2021/10/18 05:24:58;;;;;;;10.80;9.03;;;7.20;99.90;;;;;;5017139;28;20472;-76
2021/10/18 05:27:23;;;;;;;9.43;8.43;;;7.10;99.90;;;;;;5012879;28;20182;-76
2021/10/18 05:29:49;;;;;;;13.30;10.23;;;7.10;99.90;;;;;;5012121;28;20542;-77
2021/10/18 05:32:14;;;;;;;9.67;8.67;;;7.10;99.90;;;;;;5023800;28;20213;-76
2021/10/18 05:34:40;;;;;;;9.53;8.53;;;7.10;99.90;;;;;;5023639;28;20231;-73
2021/10/18 05:37:05;;;;;;;12.80;9.40;;;7.10;99.90;;;;;;5013922;28;20181;-73
2021/10/18 05:39:31;;;;;;;9.63;8.60;;;7.10;99.90;;;;;;5017951;28;20208;-73
2021/10/18 05:41:56;;;;;;;11.00;9.43;;;7.10;99.90;;;;;;5020044;28;20634;-74
2021/10/18 05:44:22;;;;;;;10.13;9.13;;;7.10;99.90;;;;;;5027747;28;20223;-73
2021/10/18 05:46:47;;;;;;;9.50;8.53;;;7.10;99.90;;;;;;5018151;28;20173;-73
2021/10/18 05:49:13;;;;;;;10.17;8.70;;;7.10;99.90;;;;;;5026835;28;20874;-74
2021/10/18 05:51:39;;;;;;;12.07;8.87;;;7.10;99.90;;;;;;5022720;28;20193;-73
2021/10/18 05:54:05;;;;;;;11.17;8.80;;;7.00;99.90;;;;;;5031912;28;20719;-73
2021/10/18 05:56:31;;;;;;;11.23;9.33;;;7.00;99.90;;;;;;5025446;28;20197;-73
2021/10/18 05:58:56;;;;;;;9.50;8.60;;;7.00;99.90;;;;;;5023532;28;20492;-73
2021/10/18 06:01:22;;;;;;;12.43;10.43;;;7.00;99.90;;;;;;5015973;28;20188;-76
2021/10/18 06:03:47;;;;;;;10.70;9.57;;;6.90;99.90;;;;;;5035717;28;20169;-77
2021/10/18 06:06:15;;;;;;;16.10;9.47;;;6.90;99.90;;;;;;5035695;28;20544;-74
2021/10/18 06:08:40;;;;;;;10.70;9.07;;;6.90;99.90;;;;;;5035183;28;20614;-74
2021/10/18 06:11:06;;;;;;;10.93;9.17;;;6.90;99.90;;;;;;5035403;28;20484;-74
2021/10/18 06:13:32;;;;;;;10.10;9.10;;;6.90;99.90;;;;;;5034538;28;20173;-73
2021/10/18 06:15:58;;;;;;;9.97;8.53;;;6.90;99.90;;;;;;5023284;28;20184;-74
2021/10/18 06:18:23;;;;;;;12.00;9.93;;;7.00;99.90;;;;;;5019142;28;20550;-75
2021/10/18 06:20:52;;;;;;;10.23;9.20;;;7.00;99.90;;;;;;5033778;28;20283;-74
2021/10/18 06:23:19;;;;;;;11.70;9.80;;;7.00;99.90;;;;;;5033564;28;20215;-73
2021/10/18 06:25:46;;;;;;;16.13;11.60;;;7.00;99.90;;;;;;5032393;28;20412;-73
2021/10/18 06:28:13;;;;;;;13.30;10.83;;;7.10;99.90;;;;;;5033713;28;20424;-73
2021/10/18 06:30:39;;;;;;;11.50;10.43;;;7.10;99.90;;;;;;5034381;28;20416;-73
2021/10/18 06:33:05;;;;;;;13.10;11.73;;;7.20;99.90;;;;;;5029175;28;20436;-72
2021/10/18 06:35:33;;;;;;;15.10;11.20;;;7.20;99.90;;;;;;5023599;28;20856;-73
2021/10/18 06:37:58;;;;;;;11.93;10.80;;;7.20;99.90;;;;;;5017576;28;20796;-72
2021/10/18 06:40:24;;;;;;;13.90;12.40;;;7.30;99.90;;;;;;5034898;28;20463;-73
2021/10/18 06:42:50;;;;;;;16.93;13.27;;;7.30;99.90;;;;;;5035423;28;20212;-73
2021/10/18 06:45:15;;;;;;;15.47;11.63;;;7.30;99.90;;;;;;5023360;28;20190;-73
2021/10/18 06:47:41;;;;;;;16.17;13.47;;;7.40;99.90;;;;;;5049485;28;20263;-72
2021/10/18 06:50:08;;;;;;;17.47;14.40;;;7.40;99.90;;;;;;5023938;28;20189;-72
2021/10/18 06:52:37;;;;;;;17.30;15.40;;;7.50;99.90;;;;;;5014371;28;20529;-73
2021/10/18 06:55:05;;;;;;;14.70;13.20;;;7.60;99.90;;;;;;5029201;28;20448;-75
2021/10/18 06:57:32;;;;;;;18.30;15.00;;;7.60;99.90;;;;;;5028555;28;20544;-72
2021/10/18 06:59:58;;;;;;;19.03;13.97;;;7.70;99.90;;;;;;5024298;28;20602;-72
2021/10/18 07:02:24;;;;;;;18.40;14.77;;;7.70;99.90;;;;;;5022491;28;20433;-73
2021/10/18 07:04:50;;;;;;;17.80;15.23;;;7.80;99.90;;;;;;5031153;28;20489;-72
2021/10/18 07:07:15;;;;;;;18.47;16.40;;;7.90;99.90;;;;;;5027765;28;21015;-74
2021/10/18 07:09:42;;;;;;;18.93;16.80;;;7.90;99.90;;;;;;5020619;28;20653;-73
2021/10/18 07:12:09;;;;;;;20.20;15.10;;;8.00;99.90;;;;;;5017254;28;20228;-74
2021/10/18 07:14:35;;;;;;;19.87;15.50;;;8.00;99.90;;;;;;5018376;28;20530;-73
2021/10/18 07:17:01;;;;;;;15.90;14.17;;;8.10;99.90;;;;;;5021842;28;20442;-73
2021/10/18 07:19:26;;;;;;;15.17;13.23;;;8.10;99.90;;;;;;5018353;28;20472;-73
2021/10/18 07:21:52;;;;;;;15.63;13.80;;;8.20;99.90;;;;;;5025073;28;20252;-74
2021/10/18 07:24:18;;;;;;;17.40;14.07;;;8.20;99.90;;;;;;5023359;28;20181;-74
2021/10/18 07:26:44;;;;;;;15.60;13.90;;;8.30;99.90;;;;;;5036686;28;20177;-73
2021/10/18 07:29:10;;;;;;;20.00;13.60;;;8.40;99.90;;;;;;5026784;28;20190;-73
2021/10/18 07:31:35;;;;;;;18.20;13.87;;;8.40;99.90;;;;;;5021738;28;20477;-73
2021/10/18 07:34:02;;;;;;;17.20;14.30;;;8.50;99.90;;;;;;5022596;28;20189;-72
2021/10/18 07:36:29;;;;;;;14.83;13.23;;;8.60;99.90;;;;;;5016824;28;20643;-72
2021/10/18 07:39:03;;;;;;;15.73;13.70;;;8.60;99.90;;;;;;5020210;28;20467;-73
2021/10/18 07:41:30;;;;;;;18.10;13.87;;;8.70;99.90;;;;;;5020459;28;20495;-72
2021/10/18 07:43:55;;;;;;;17.53;14.00;;;8.80;99.90;;;;;;5013361;28;20471;-72
2021/10/18 07:46:21;;;;;;;16.30;13.23;;;8.90;99.90;;;;;;5018265;28;21495;-73
2021/10/18 07:48:46;;;;;;;13.93;12.67;;;9.00;99.90;;;;;;5027147;28;20177;-73
2021/10/18 07:51:12;;;;;;;18.57;14.23;;;9.00;99.90;;;;;;5014698;28;20220;-73
2021/10/18 07:53:37;;;;;;;14.10;12.57;;;9.10;99.90;;;;;;5020617;28;20260;-73
2021/10/18 07:56:03;;;;;;;20.07;13.70;;;9.20;99.90;;;;;;5020943;28;20186;-73
2021/10/18 07:58:29;;;;;;;22.63;16.30;;;9.30;99.90;;;;;;5021337;28;20635;-73
2021/10/18 08:00:54;;;;;;;16.00;13.87;;;9.40;99.90;;;;;;5022081;28;20204;-73
2021/10/18 08:03:20;;;;;;;15.70;14.17;;;9.50;99.90;;;;;;5029226;28;20625;-73
2021/10/18 08:05:46;;;;;;;16.10;14.57;;;9.60;99.90;;;;;;5023817;28;20170;-72
2021/10/18 08:08:13;;;;;;;18.50;13.70;;;9.70;99.90;;;;;;5031989;28;20534;-72
2021/10/18 08:10:39;;;;;;;17.30;14.27;;;9.80;99.90;;;;;;5018644;28;20194;-73
2021/10/18 08:13:05;;;;;;;16.63;14.90;;;9.90;99.90;;;;;;5018980;28;20432;-73
2021/10/18 08:15:31;;;;;;;27.20;14.43;;;10.00;99.90;;;;;;5020050;28;20181;-72
2021/10/18 08:17:57;;;;;;;16.03;14.33;;;10.00;99.90;;;;;;5019078;28;20299;-73
2021/10/18 08:20:23;;;;;;;14.83;13.23;;;10.10;99.90;;;;;;5021658;28;20468;-72
2021/10/18 08:22:49;;;;;;;16.43;14.70;;;10.30;99.90;;;;;;5023114;28;20428;-73
2021/10/18 08:25:16;;;;;;;16.13;14.10;;;10.40;99.90;;;;;;5017284;28;20455;-73
2021/10/18 08:27:41;;;;;;;15.50;13.90;;;10.50;99.90;;;;;;5016975;28;20530;-73
2021/10/18 08:30:08;;;;;;;15.87;14.27;;;10.60;99.90;;;;;;5021601;28;20536;-72
2021/10/18 08:32:36;;;;;;;15.90;14.20;;;10.60;99.90;;;;;;5018424;28;20220;-73
2021/10/18 08:35:03;;;;;;;15.60;13.40;;;10.80;99.90;;;;;;5019192;28;20960;-73
2021/10/18 08:40:14;;;;;;;13.70;12.40;;;10.90;99.90;;;;;;5026287;28;20448;-73
2021/10/18 08:42:55;;;;;;;15.90;12.87;;;11.10;99.90;;;;;;5025824;28;20501;-73
2021/10/18 08:45:21;;;;;;;14.90;12.00;;;11.20;99.90;;;;;;5013494;28;20263;-73
2021/10/18 08:47:48;;;;;;;12.97;11.67;;;11.30;99.90;;;;;;5015191;28;20920;-73
2021/10/18 08:50:14;;;;;;;16.37;11.43;;;11.50;99.90;;;;;;5012220;28;20432;-73
2021/10/18 08:52:42;;;;;;;12.00;10.70;;;11.60;99.90;;;;;;5026325;28;20444;-75
2021/10/18 08:55:09;;;;;;;11.17;9.97;;;11.70;99.90;;;;;;5026735;28;20952;-72
2021/10/18 08:57:35;;;;;;;10.97;9.87;;;11.90;99.90;;;;;;5025601;28;20556;-73
2021/10/18 09:00:01;;;;;;;13.47;11.17;;;12.00;99.90;;;;;;5027883;28;20813;-73
2021/10/18 09:02:36;;;;;;;10.57;9.27;;;12.10;99.90;;;;;;5021616;28;20933;-73
2021/10/18 09:05:05;;;;;;;11.80;9.77;;;12.20;99.90;;;;;;5027766;28;20471;-72
2021/10/18 09:07:35;;;;;;;13.17;9.80;;;12.20;99.90;;;;;;5017878;28;21038;-73
2021/10/18 09:10:01;;;;;;;10.53;9.30;;;12.30;99.90;;;;;;5025030;28;20444;-73
2021/10/18 09:12:32;;;;;;;11.40;9.73;;;12.40;99.90;;;;;;5029259;28;20473;-73
2021/10/18 09:15:20;;;;;;;13.27;11.43;;;12.40;99.90;;;;;;5026109;28;20635;-73
2021/10/18 09:17:55;;;;;;;13.33;8.47;;;12.50;99.90;;;;;;5018277;28;20436;-73
2021/10/18 09:26:13;;;;;;;11.30;8.30;;;12.70;99.90;;;;;;5055256;28;20538;-73
2021/10/18 09:28:40;;;;;;;10.10;8.60;;;12.70;99.90;;;;;;5033149;28;20431;-71
2021/10/18 09:31:15;;;;;;;10.03;8.17;;;12.80;99.90;;;;;;5033704;28;20874;-71
2021/10/18 09:33:44;;;;;;;9.23;6.70;;;12.90;99.90;;;;;;5039433;28;20794;-71
2021/10/18 09:36:14;;;;;;;13.73;7.37;;;13.00;99.90;;;;;;5039074;28;20796;-71
2021/10/18 09:38:39;;;;;;;12.43;7.60;;;13.00;99.90;;;;;;5041806;28;20457;-71
2021/10/18 09:41:05;;;;;;;8.30;6.80;;;13.10;99.90;;;;;;5046087;28;20428;-72
2021/10/18 10:53:50;;;;;;;6.13;5.53;;;14.00;99.90;;;;;;5058173;28;20545;-71
2021/10/18 10:56:45;;;;;;;10.50;7.63;;;14.00;99.90;;;;;;5062714;28;20462;-72
2021/10/18 11:20:21;;;;;;;7.40;5.97;;;14.50;99.90;;;;;;5106959;27;20554;-72
2021/10/18 11:22:49;;;;;;;6.90;6.00;;;14.60;99.90;;;;;;5087207;28;20428;-70
2021/10/18 11:27:57;;;;;;;8.20;7.50;;;14.60;99.90;;;;;;5061211;28;20554;-71
2021/10/18 11:30:25;;;;;;;9.23;8.23;;;14.60;99.90;;;;;;5047601;28;20509;-72
2021/10/18 11:32:57;;;;;;;9.80;8.77;;;14.70;99.90;;;;;;5046894;28;20470;-71
2021/10/18 11:35:23;;;;;;;8.20;7.10;;;14.70;99.90;;;;;;5034245;28;20453;-71
2021/10/18 11:43:09;;;;;;;8.63;6.37;;;14.70;99.90;;;;;;5068833;28;20555;-71
2021/10/18 11:45:38;;;;;;;8.90;6.90;;;14.70;99.90;;;;;;5046339;28;20450;-71
2021/10/18 11:50:43;;;;;;;7.17;6.47;;;14.60;99.90;;;;;;5089804;27;20989;-71
2021/10/18 11:53:18;;;;;;;7.73;6.40;;;14.70;99.90;;;;;;5083982;28;20452;-72
2021/10/18 11:58:26;;;;;;;7.27;6.53;;;14.70;99.90;;;;;;5046526;28;20551;-71
2021/10/18 12:00:58;;;;;;;7.10;6.33;;;14.80;99.90;;;;;;5047747;28;20434;-71
2021/10/18 12:03:24;;;;;;;7.37;6.60;;;14.90;99.90;;;;;;5034757;28;20427;-71
2021/10/18 12:05:52;;;;;;;6.70;5.63;;;14.90;99.90;;;;;;5053443;28;20458;-71
2021/10/18 12:08:20;;;;;;;8.50;6.13;;;14.90;99.90;;;;;;5048775;28;20442;-71
2021/10/18 12:10:48;;;;;;;13.97;6.77;;;14.90;99.90;;;;;;5044814;28;20435;-71
2021/10/18 12:13:17;;;;;;;6.67;5.40;;;14.80;99.90;;;;;;5036626;28;20447;-71
2021/10/18 12:15:52;;;;;;;11.13;6.20;;;14.80;99.90;;;;;;5039012;28;20442;-71
2021/10/18 12:18:22;;;;;;;10.00;6.63;;;14.80;99.90;;;;;;5048116;28;20454;-71
2021/10/18 12:20:52;;;;;;;6.93;6.23;;;14.70;99.90;;;;;;5045238;28;20435;-70
2021/10/18 12:26:01;;;;;;;8.87;6.13;;;14.70;99.90;;;;;;5093364;27;20598;-73
2021/10/18 12:28:38;;;;;;;6.03;5.40;;;14.70;99.90;;;;;;5084180;28;20867;-71
2021/10/18 12:31:04;;;;;;;7.53;5.97;;;14.70;99.90;;;;;;5080862;28;20449;-71
2021/10/18 12:33:37;;;;;;;11.70;8.30;;;14.70;99.90;;;;;;5072918;28;20439;-71
2021/10/18 12:36:04;;;;;;;10.00;8.00;;;14.70;99.90;;;;;;5073448;28;20434;-71
2021/10/18 12:38:31;;;;;;;7.13;6.40;;;14.70;99.90;;;;;;5079929;28;20436;-71
2021/10/18 12:41:17;;;;;;;7.33;6.07;;;14.70;99.90;;;;;;5075248;28;20429;-72
2021/10/18 12:43:44;;;;;;;12.37;6.60;;;14.60;99.90;;;;;;5082741;28;20417;-71
2021/10/18 12:46:21;;;;;;;6.00;5.50;;;14.60;99.90;;;;;;5070598;28;20458;-72
2021/10/18 12:49:05;;;;;;;6.23;5.70;;;14.60;99.90;;;;;;5074379;28;20806;-71
2021/10/18 12:57:15;;;;;;;7.70;6.93;;;14.50;99.90;;;;;;5101776;27;20571;-73
2021/10/18 13:00:04;;;;;;;7.77;6.50;;;14.50;99.90;;;;;;5085522;27;20428;-72
2021/10/18 13:02:32;;;;;;;7.10;6.47;;;14.50;99.90;;;;;;5071236;28;20417;-72
2021/10/18 13:05:00;;;;;;;6.63;5.97;;;14.50;99.90;;;;;;5087400;28;20424;-72
2021/10/18 13:07:25;;;;;;;7.43;6.73;;;14.50;99.90;;;;;;5088359;28;20553;-72
2021/10/18 13:09:51;;;;;;;9.43;7.63;;;14.50;99.90;;;;;;5085181;28;20461;-71
2021/10/18 13:12:17;;;;;;;9.47;7.80;;;14.50;99.90;;;;;;5086648;28;20174;-71
2021/10/18 13:14:43;;;;;;;9.80;7.83;;;14.50;99.90;;;;;;5082636;28;20221;-72
2021/10/18 13:17:08;;;;;;;8.30;7.37;;;14.60;99.90;;;;;;5088131;28;20460;-72
2021/10/18 13:19:34;;;;;;;8.83;7.20;;;14.60;99.90;;;;;;5087252;28;20249;-72
2021/10/18 13:21:59;;;;;;;10.50;7.30;;;14.60;99.90;;;;;;5080752;28;20182;-72
2021/10/18 13:24:25;;;;;;;9.00;7.37;;;14.60;99.90;;;;;;5095550;28;20178;-72
2021/10/18 13:26:50;;;;;;;8.70;7.80;;;14.60;99.90;;;;;;5076421;28;20263;-72
2021/10/18 13:29:16;;;;;;;8.60;7.77;;;14.70;99.90;;;;;;5079781;28;20199;-73
2021/10/18 13:31:42;;;;;;;9.50;7.90;;;14.70;99.90;;;;;;5084242;28;20561;-72
2021/10/18 13:34:07;;;;;;;9.63;6.60;;;14.80;99.90;;;;;;5079297;28;20179;-72
2021/10/18 13:36:33;;;;;;;8.93;7.40;;;14.80;99.90;;;;;;5068789;28;20282;-73
2021/10/18 13:39:01;;;;;;;9.07;8.17;;;14.90;99.90;;;;;;5081596;28;20187;-71
2021/10/18 13:41:27;;;;;;;8.80;7.90;;;14.90;99.90;;;;;;5085807;28;20189;-72
2021/10/18 13:43:53;;;;;;;9.27;7.60;;;14.90;99.90;;;;;;5073012;28;20434;-72
2021/10/18 13:46:18;;;;;;;11.00;8.40;;;15.00;99.90;;;;;;5107429;28;20760;-71
2021/10/18 13:48:44;;;;;;;8.97;8.10;;;15.00;99.90;;;;;;5091541;28;20609;-71
2021/10/18 13:51:09;;;;;;;9.00;7.40;;;15.00;99.90;;;;;;5073736;28;20191;-71
2021/10/18 13:53:35;;;;;;;9.43;7.50;;;15.00;99.90;;;;;;5067542;28;20253;-71
2021/10/18 13:56:01;;;;;;;8.20;7.40;;;15.00;99.90;;;;;;5069096;28;20249;-71
2021/10/18 13:58:26;;;;;;;10.93;8.10;;;15.00;99.90;;;;;;5077978;28;20593;-71
2021/10/18 14:00:52;;;;;;;9.90;8.50;;;15.00;99.90;;;;;;5088535;28;20528;-71
2021/10/18 14:03:17;;;;;;;9.33;7.70;;;15.00;99.90;;;;;;5088732;28;20216;-71
2021/10/18 14:05:43;;;;;;;10.30;8.63;;;15.00;99.90;;;;;;5088315;28;20721;-71
2021/10/18 14:08:08;;;;;;;10.53;9.40;;;15.10;99.90;;;;;;5069334;28;20190;-72
2021/10/18 14:10:34;;;;;;;9.87;8.90;;;15.10;99.90;;;;;;5057007;28;20179;-75
2021/10/18 14:13:00;;;;;;;8.97;8.07;;;15.10;99.90;;;;;;5069289;28;20175;-73
2021/10/18 14:15:25;;;;;;;10.43;9.10;;;15.10;99.90;;;;;;5074532;28;20191;-72
2021/10/18 14:17:51;;;;;;;10.47;8.87;;;15.10;99.90;;;;;;5074047;28;20620;-71
2021/10/18 14:20:16;;;;;;;11.10;8.40;;;15.10;99.90;;;;;;5074710;28;20167;-72
2021/10/18 14:22:42;;;;;;;9.47;8.57;;;15.10;99.90;;;;;;5074308;28;20620;-73
2021/10/18 14:25:09;;;;;;;8.40;7.30;;;15.10;99.90;;;;;;5074519;28;20502;-73
2021/10/18 14:27:35;;;;;;;8.90;8.00;;;15.10;99.90;;;;;;5074361;28;20545;-72
2021/10/18 14:30:03;;;;;;;10.17;7.93;;;15.10;99.90;;;;;;5060882;28;20433;-73
2021/10/18 14:32:29;;;;;;;10.90;7.90;;;15.10;99.90;;;;;;5074995;28;20742;-72
2021/10/18 14:34:54;;;;;;;11.20;8.97;;;15.10;99.90;;;;;;5074653;28;20426;-73
2021/10/18 14:37:20;;;;;;;10.30;8.30;;;15.00;99.90;;;;;;5072323;28;20176;-72
2021/10/18 14:39:45;;;;;;;11.00;8.67;;;15.00;99.90;;;;;;5054607;28;20201;-72
2021/10/18 14:42:11;;;;;;;11.17;9.17;;;14.90;99.90;;;;;;5055081;28;20164;-72
2021/10/18 14:44:36;;;;;;;12.70;11.40;;;14.90;99.90;;;;;;5074588;28;20256;-72
2021/10/18 14:47:02;;;;;;;11.90;10.20;;;14.90;99.90;;;;;;5073681;28;20194;-72